sensor_id;sensor_type;location;lat;lon;timestamp;P1;durP1;ratioP1;P2;durP2;ratioP2
51836;SDS011;38941;53.254;6.600;2022-09-28T00:00:16;5.20;;;3.03;;
51836;SDS011;38941;53.254;6.600;2022-09-28T00:02:17;3.92;;;2.45;;
51836;SDS011;38941;53.254;6.600;2022-09-28T00:04:19;4.88;;;2.63;;
51836;SDS011;38941;53.254;6.600;2022-09-28T00:06:21;6.20;;;3.38;;
51836;SDS011;38941;53.254;6.600;2022-09-28T00:08:23;8.05;;;3.20;;
51836;SDS011;38941;53.254;6.600;2022-09-28T00:10:24;6.40;;;3.08;;
51836;SDS011;38941;53.254;6.600;2022-09-28T00:12:24;6.60;;;3.08;;
51836;SDS011;38941;53.254;6.600;2022-09-28T00:14:25;6.38;;;2.85;;
51836;SDS011;38941;53.254;6.600;2022-09-28T00:16:29;7.32;;;3.17;;
51836;SDS011;38941;53.254;6.600;2022-09-28T00:18:31;5.95;;;2.95;;
51836;SDS011;38941;53.254;6.600;2022-09-28T00:20:34;5.22;;;2.95;;
51836;SDS011;38941;53.254;6.600;2022-09-28T00:22:34;4.78;;;2.80;;
51836;SDS011;38941;53.254;6.600;2022-09-28T00:24:36;8.35;;;3.63;;
51836;SDS011;38941;53.254;6.600;2022-09-28T00:28:53;8.60;;;3.55;;
51836;SDS011;38941;53.254;6.600;2022-09-28T00:30:55;8.35;;;3.65;;
51836;SDS011;38941;53.254;6.600;2022-09-28T00:32:56;7.75;;;3.58;;
51836;SDS011;38941;53.254;6.600;2022-09-28T00:34:57;7.88;;;3.97;;
51836;SDS011;38941;53.254;6.600;2022-09-28T00:36:58;8.23;;;4.03;;
51836;SDS011;38941;53.254;6.600;2022-09-28T00:39:04;6.00;;;3.63;;
51836;SDS011;38941;53.254;6.600;2022-09-28T00:41:07;5.72;;;3.80;;
51836;SDS011;38941;53.254;6.600;2022-09-28T00:43:17;10.25;;;3.50;;
51836;SDS011;38941;53.254;6.600;2022-09-28T00:45:18;7.00;;;3.83;;
51836;SDS011;38941;53.254;6.600;2022-09-28T00:47:20;7.65;;;3.95;;
51836;SDS011;38941;53.254;6.600;2022-09-28T00:51:54;6.40;;;3.53;;
51836;SDS011;38941;53.254;6.600;2022-09-28T00:53:55;10.98;;;3.95;;
51836;SDS011;38941;53.254;6.600;2022-09-28T00:56:06;6.57;;;3.33;;
51836;SDS011;38941;53.254;6.600;2022-09-28T00:58:12;7.22;;;3.05;;
51836;SDS011;38941;53.254;6.600;2022-09-28T01:00:17;4.97;;;3.00;;
51836;SDS011;38941;53.254;6.600;2022-09-28T01:02:18;6.22;;;3.38;;
51836;SDS011;38941;53.254;6.600;2022-09-28T01:04:20;6.00;;;2.78;;
51836;SDS011;38941;53.254;6.600;2022-09-28T01:06:22;8.80;;;3.65;;
51836;SDS011;38941;53.254;6.600;2022-09-28T01:08:26;7.95;;;3.92;;
51836;SDS011;38941;53.254;6.600;2022-09-28T01:10:30;7.82;;;3.88;;
51836;SDS011;38941;53.254;6.600;2022-09-28T01:12:32;7.55;;;4.25;;
51836;SDS011;38941;53.254;6.600;2022-09-28T01:14:33;8.35;;;4.35;;
51836;SDS011;38941;53.254;6.600;2022-09-28T01:21:18;10.00;;;4.20;;
51836;SDS011;38941;53.254;6.600;2022-09-28T01:25:53;6.78;;;3.78;;
51836;SDS011;38941;53.254;6.600;2022-09-28T01:30:13;7.68;;;4.55;;
51836;SDS011;38941;53.254;6.600;2022-09-28T01:32:33;11.40;;;4.72;;
51836;SDS011;38941;53.254;6.600;2022-09-28T01:35:07;7.13;;;4.18;;
51836;SDS011;38941;53.254;6.600;2022-09-28T01:37:14;7.63;;;4.25;;
51836;SDS011;38941;53.254;6.600;2022-09-28T01:39:21;9.88;;;4.53;;
51836;SDS011;38941;53.254;6.600;2022-09-28T01:41:33;8.90;;;4.10;;
51836;SDS011;38941;53.254;6.600;2022-09-28T01:43:38;9.02;;;4.53;;
51836;SDS011;38941;53.254;6.600;2022-09-28T01:45:50;8.73;;;4.25;;
51836;SDS011;38941;53.254;6.600;2022-09-28T01:48:04;10.50;;;4.00;;
51836;SDS011;38941;53.254;6.600;2022-09-28T01:50:14;7.72;;;4.47;;
51836;SDS011;38941;53.254;6.600;2022-09-28T01:52:20;7.88;;;3.92;;
51836;SDS011;38941;53.254;6.600;2022-09-28T01:54:28;7.20;;;3.50;;
51836;SDS011;38941;53.254;6.600;2022-09-28T01:56:49;7.75;;;3.60;;
51836;SDS011;38941;53.254;6.600;2022-09-28T01:58:54;7.18;;;4.10;;
51836;SDS011;38941;53.254;6.600;2022-09-28T02:01:06;7.75;;;3.70;;
51836;SDS011;38941;53.254;6.600;2022-09-28T02:03:15;7.13;;;4.38;;
51836;SDS011;38941;53.254;6.600;2022-09-28T02:05:25;7.93;;;4.15;;
51836;SDS011;38941;53.254;6.600;2022-09-28T02:07:54;8.02;;;3.72;;
51836;SDS011;38941;53.254;6.600;2022-09-28T02:10:06;8.10;;;4.45;;
51836;SDS011;38941;53.254;6.600;2022-09-28T02:12:31;9.98;;;4.70;;
51836;SDS011;38941;53.254;6.600;2022-09-28T02:14:40;8.35;;;3.85;;
51836;SDS011;38941;53.254;6.600;2022-09-28T02:16:45;8.05;;;4.78;;
51836;SDS011;38941;53.254;6.600;2022-09-28T02:18:49;9.27;;;4.38;;
51836;SDS011;38941;53.254;6.600;2022-09-28T02:20:52;9.63;;;4.78;;
51836;SDS011;38941;53.254;6.600;2022-09-28T02:23:00;8.68;;;4.53;;
51836;SDS011;38941;53.254;6.600;2022-09-28T02:25:15;8.00;;;4.28;;
51836;SDS011;38941;53.254;6.600;2022-09-28T02:27:45;13.98;;;6.05;;
51836;SDS011;38941;53.254;6.600;2022-09-28T02:29:54;7.53;;;4.65;;
51836;SDS011;38941;53.254;6.600;2022-09-28T02:31:54;8.82;;;5.40;;
51836;SDS011;38941;53.254;6.600;2022-09-28T02:33:55;10.07;;;4.53;;
51836;SDS011;38941;53.254;6.600;2022-09-28T02:35:57;9.38;;;5.15;;
51836;SDS011;38941;53.254;6.600;2022-09-28T02:37:59;7.85;;;4.70;;
51836;SDS011;38941;53.254;6.600;2022-09-28T02:40:00;11.60;;;5.28;;
51836;SDS011;38941;53.254;6.600;2022-09-28T02:47:20;10.52;;;5.85;;
51836;SDS011;38941;53.254;6.600;2022-09-28T02:49:55;10.63;;;4.93;;
51836;SDS011;38941;53.254;6.600;2022-09-28T02:52:25;8.70;;;4.80;;
51836;SDS011;38941;53.254;6.600;2022-09-28T02:54:53;10.23;;;4.90;;
51836;SDS011;38941;53.254;6.600;2022-09-28T03:02:00;10.52;;;4.82;;
51836;SDS011;38941;53.254;6.600;2022-09-28T03:12:03;12.82;;;6.15;;
51836;SDS011;38941;53.254;6.600;2022-09-28T03:13:43;9.93;;;5.60;;
51836;SDS011;38941;53.254;6.600;2022-09-28T03:15:45;12.48;;;5.65;;
51836;SDS011;38941;53.254;6.600;2022-09-28T03:17:46;10.75;;;4.85;;
51836;SDS011;38941;53.254;6.600;2022-09-28T03:19:48;14.20;;;5.30;;
51836;SDS011;38941;53.254;6.600;2022-09-28T03:21:49;8.38;;;4.55;;
51836;SDS011;38941;53.254;6.600;2022-09-28T03:23:49;10.70;;;4.88;;
51836;SDS011;38941;53.254;6.600;2022-09-28T03:25:50;9.27;;;4.20;;
51836;SDS011;38941;53.254;6.600;2022-09-28T03:27:52;11.40;;;5.13;;
51836;SDS011;38941;53.254;6.600;2022-09-28T03:29:52;11.35;;;5.18;;
51836;SDS011;38941;53.254;6.600;2022-09-28T03:31:53;8.38;;;4.28;;
51836;SDS011;38941;53.254;6.600;2022-09-28T03:33:54;9.57;;;4.25;;
51836;SDS011;38941;53.254;6.600;2022-09-28T03:35:54;7.20;;;3.72;;
51836;SDS011;38941;53.254;6.600;2022-09-28T03:37:55;7.78;;;4.13;;
51836;SDS011;38941;53.254;6.600;2022-09-28T03:39:56;8.82;;;4.32;;
51836;SDS011;38941;53.254;6.600;2022-09-28T03:41:58;10.13;;;4.00;;
51836;SDS011;38941;53.254;6.600;2022-09-28T03:44:00;9.77;;;4.53;;
51836;SDS011;38941;53.254;6.600;2022-09-28T03:46:00;7.68;;;3.85;;
51836;SDS011;38941;53.254;6.600;2022-09-28T03:48:01;6.40;;;3.47;;
51836;SDS011;38941;53.254;6.600;2022-09-28T03:50:02;7.10;;;3.85;;
51836;SDS011;38941;53.254;6.600;2022-09-28T03:52:03;12.07;;;3.92;;
51836;SDS011;38941;53.254;6.600;2022-09-28T03:54:04;7.07;;;3.83;;
51836;SDS011;38941;53.254;6.600;2022-09-28T03:56:06;6.85;;;3.78;;
51836;SDS011;38941;53.254;6.600;2022-09-28T03:58:08;9.45;;;4.10;;
51836;SDS011;38941;53.254;6.600;2022-09-28T04:00:09;17.20;;;4.15;;
51836;SDS011;38941;53.254;6.600;2022-09-28T04:02:10;26.35;;;4.40;;
51836;SDS011;38941;53.254;6.600;2022-09-28T04:04:11;69.28;;;5.38;;
51836;SDS011;38941;53.254;6.600;2022-09-28T04:06:12;151.40;;;8.10;;
51836;SDS011;38941;53.254;6.600;2022-09-28T04:08:14;83.20;;;6.30;;
51836;SDS011;38941;53.254;6.600;2022-09-28T04:10:16;75.28;;;6.07;;
51836;SDS011;38941;53.254;6.600;2022-09-28T04:12:16;96.88;;;7.03;;
51836;SDS011;38941;53.254;6.600;2022-09-28T04:14:17;25.20;;;4.95;;
51836;SDS011;38941;53.254;6.600;2022-09-28T04:16:18;90.57;;;6.95;;
51836;SDS011;38941;53.254;6.600;2022-09-28T04:18:18;121.70;;;7.57;;
51836;SDS011;38941;53.254;6.600;2022-09-28T04:20:20;92.18;;;7.35;;
51836;SDS011;38941;53.254;6.600;2022-09-28T04:22:21;97.55;;;7.70;;
51836;SDS011;38941;53.254;6.600;2022-09-28T04:24:23;87.07;;;7.05;;
51836;SDS011;38941;53.254;6.600;2022-09-28T04:26:24;85.28;;;7.70;;
51836;SDS011;38941;53.254;6.600;2022-09-28T04:28:26;66.95;;;7.00;;
51836;SDS011;38941;53.254;6.600;2022-09-28T04:30:46;110.43;;;7.30;;
51836;SDS011;38941;53.254;6.600;2022-09-28T04:32:48;35.85;;;5.70;;
51836;SDS011;38941;53.254;6.600;2022-09-28T04:34:49;52.95;;;6.65;;
51836;SDS011;38941;53.254;6.600;2022-09-28T04:36:50;96.93;;;7.03;;
51836;SDS011;38941;53.254;6.600;2022-09-28T04:38:51;29.98;;;5.90;;
51836;SDS011;38941;53.254;6.600;2022-09-28T04:40:52;65.03;;;7.00;;
51836;SDS011;38941;53.254;6.600;2022-09-28T04:42:54;55.15;;;6.15;;
51836;SDS011;38941;53.254;6.600;2022-09-28T04:44:55;36.72;;;5.70;;
51836;SDS011;38941;53.254;6.600;2022-09-28T04:46:57;32.15;;;5.75;;
51836;SDS011;38941;53.254;6.600;2022-09-28T04:48:58;19.48;;;5.82;;
51836;SDS011;38941;53.254;6.600;2022-09-28T04:50:59;57.95;;;6.88;;
51836;SDS011;38941;53.254;6.600;2022-09-28T04:53:00;31.80;;;5.10;;
51836;SDS011;38941;53.254;6.600;2022-09-28T04:55:01;44.78;;;5.85;;
51836;SDS011;38941;53.254;6.600;2022-09-28T04:57:01;33.63;;;6.60;;
51836;SDS011;38941;53.254;6.600;2022-09-28T04:59:03;27.10;;;5.70;;
51836;SDS011;38941;53.254;6.600;2022-09-28T05:01:06;44.22;;;6.53;;
51836;SDS011;38941;53.254;6.600;2022-09-28T05:03:10;21.80;;;5.07;;
51836;SDS011;38941;53.254;6.600;2022-09-28T05:05:11;39.50;;;5.78;;
51836;SDS011;38941;53.254;6.600;2022-09-28T05:07:11;33.45;;;5.93;;
51836;SDS011;38941;53.254;6.600;2022-09-28T05:09:13;29.73;;;5.82;;
51836;SDS011;38941;53.254;6.600;2022-09-28T05:11:14;14.05;;;5.82;;
51836;SDS011;38941;53.254;6.600;2022-09-28T05:13:14;33.35;;;5.93;;
51836;SDS011;38941;53.254;6.600;2022-09-28T05:15:17;47.97;;;6.10;;
51836;SDS011;38941;53.254;6.600;2022-09-28T05:17:18;67.75;;;7.13;;
51836;SDS011;38941;53.254;6.600;2022-09-28T05:19:19;82.88;;;7.95;;
51836;SDS011;38941;53.254;6.600;2022-09-28T05:21:19;88.07;;;7.80;;
51836;SDS011;38941;53.254;6.600;2022-09-28T05:23:21;76.53;;;7.43;;
51836;SDS011;38941;53.254;6.600;2022-09-28T05:25:22;8.35;;;5.15;;
51836;SDS011;38941;53.254;6.600;2022-09-28T05:27:24;37.28;;;6.20;;
51836;SDS011;38941;53.254;6.600;2022-09-28T05:29:25;24.17;;;6.32;;
51836;SDS011;38941;53.254;6.600;2022-09-28T05:31:26;55.95;;;6.63;;
51836;SDS011;38941;53.254;6.600;2022-09-28T05:33:27;47.03;;;6.03;;
51836;SDS011;38941;53.254;6.600;2022-09-28T05:35:28;22.50;;;6.40;;
51836;SDS011;38941;53.254;6.600;2022-09-28T05:37:30;15.98;;;6.00;;
51836;SDS011;38941;53.254;6.600;2022-09-28T05:39:30;17.48;;;6.07;;
51836;SDS011;38941;53.254;6.600;2022-09-28T05:41:31;35.10;;;6.10;;
51836;SDS011;38941;53.254;6.600;2022-09-28T05:43:31;62.47;;;6.82;;
51836;SDS011;38941;53.254;6.600;2022-09-28T05:45:32;16.25;;;5.97;;
51836;SDS011;38941;53.254;6.600;2022-09-28T05:47:37;10.88;;;5.18;;
51836;SDS011;38941;53.254;6.600;2022-09-28T05:49:38;8.68;;;4.57;;
51836;SDS011;38941;53.254;6.600;2022-09-28T05:51:39;9.43;;;4.90;;
51836;SDS011;38941;53.254;6.600;2022-09-28T05:53:40;11.48;;;6.15;;
51836;SDS011;38941;53.254;6.600;2022-09-28T05:55:41;9.07;;;5.35;;
51836;SDS011;38941;53.254;6.600;2022-09-28T05:57:42;11.18;;;5.57;;
51836;SDS011;38941;53.254;6.600;2022-09-28T05:59:43;9.85;;;5.18;;
51836;SDS011;38941;53.254;6.600;2022-09-28T06:01:43;12.15;;;5.20;;
51836;SDS011;38941;53.254;6.600;2022-09-28T06:03:44;9.77;;;5.55;;
51836;SDS011;38941;53.254;6.600;2022-09-28T06:05:45;10.25;;;4.72;;
51836;SDS011;38941;53.254;6.600;2022-09-28T06:07:46;9.57;;;5.07;;
51836;SDS011;38941;53.254;6.600;2022-09-28T06:09:47;11.38;;;4.55;;
51836;SDS011;38941;53.254;6.600;2022-09-28T06:11:47;11.43;;;5.35;;
51836;SDS011;38941;53.254;6.600;2022-09-28T06:13:51;9.45;;;5.07;;
51836;SDS011;38941;53.254;6.600;2022-09-28T06:15:56;9.70;;;5.15;;
51836;SDS011;38941;53.254;6.600;2022-09-28T06:19:57;12.25;;;5.60;;
51836;SDS011;38941;53.254;6.600;2022-09-28T06:21:58;10.23;;;5.72;;
51836;SDS011;38941;53.254;6.600;2022-09-28T06:23:59;9.68;;;5.05;;
51836;SDS011;38941;53.254;6.600;2022-09-28T06:26:00;11.98;;;6.03;;
51836;SDS011;38941;53.254;6.600;2022-09-28T06:28:02;9.45;;;5.07;;
51836;SDS011;38941;53.254;6.600;2022-09-28T06:30:05;10.07;;;5.25;;
51836;SDS011;38941;53.254;6.600;2022-09-28T06:32:06;11.88;;;5.82;;
51836;SDS011;38941;53.254;6.600;2022-09-28T06:34:07;8.93;;;5.35;;
51836;SDS011;38941;53.254;6.600;2022-09-28T06:36:10;13.23;;;5.68;;
51836;SDS011;38941;53.254;6.600;2022-09-28T06:38:12;15.30;;;6.28;;
51836;SDS011;38941;53.254;6.600;2022-09-28T06:40:13;10.55;;;5.63;;
51836;SDS011;38941;53.254;6.600;2022-09-28T06:42:13;11.18;;;5.50;;
51836;SDS011;38941;53.254;6.600;2022-09-28T06:44:18;12.70;;;6.00;;
51836;SDS011;38941;53.254;6.600;2022-09-28T06:46:19;11.63;;;5.68;;
51836;SDS011;38941;53.254;6.600;2022-09-28T06:48:20;13.32;;;6.03;;
51836;SDS011;38941;53.254;6.600;2022-09-28T06:50:21;12.65;;;6.28;;
51836;SDS011;38941;53.254;6.600;2022-09-28T06:52:23;11.35;;;5.95;;
51836;SDS011;38941;53.254;6.600;2022-09-28T06:54:24;11.77;;;5.70;;
51836;SDS011;38941;53.254;6.600;2022-09-28T06:56:25;18.52;;;7.20;;
51836;SDS011;38941;53.254;6.600;2022-09-28T06:58:29;16.17;;;6.15;;
51836;SDS011;38941;53.254;6.600;2022-09-28T07:00:32;15.82;;;6.80;;
51836;SDS011;38941;53.254;6.600;2022-09-28T07:02:34;17.00;;;6.80;;
51836;SDS011;38941;53.254;6.600;2022-09-28T07:04:35;13.75;;;6.30;;
51836;SDS011;38941;53.254;6.600;2022-09-28T07:06:37;11.70;;;6.20;;
51836;SDS011;38941;53.254;6.600;2022-09-28T07:08:38;17.27;;;7.38;;
51836;SDS011;38941;53.254;6.600;2022-09-28T07:10:42;11.07;;;6.30;;
51836;SDS011;38941;53.254;6.600;2022-09-28T07:12:44;13.00;;;6.35;;
51836;SDS011;38941;53.254;6.600;2022-09-28T07:14:46;11.70;;;6.05;;
51836;SDS011;38941;53.254;6.600;2022-09-28T07:16:49;13.00;;;6.18;;
51836;SDS011;38941;53.254;6.600;2022-09-28T07:18:50;12.02;;;6.55;;
51836;SDS011;38941;53.254;6.600;2022-09-28T07:20:51;12.55;;;6.45;;
51836;SDS011;38941;53.254;6.600;2022-09-28T07:22:55;12.80;;;6.32;;
51836;SDS011;38941;53.254;6.600;2022-09-28T07:24:57;14.88;;;5.88;;
51836;SDS011;38941;53.254;6.600;2022-09-28T07:26:57;11.38;;;6.05;;
51836;SDS011;38941;53.254;6.600;2022-09-28T07:28:58;11.20;;;5.05;;
51836;SDS011;38941;53.254;6.600;2022-09-28T07:31:00;15.93;;;6.32;;
51836;SDS011;38941;53.254;6.600;2022-09-28T07:33:02;14.93;;;7.03;;
51836;SDS011;38941;53.254;6.600;2022-09-28T07:35:07;12.85;;;5.85;;
51836;SDS011;38941;53.254;6.600;2022-09-28T07:37:11;14.02;;;6.43;;
51836;SDS011;38941;53.254;6.600;2022-09-28T07:39:12;14.70;;;7.30;;
51836;SDS011;38941;53.254;6.600;2022-09-28T07:41:14;10.45;;;6.10;;
51836;SDS011;38941;53.254;6.600;2022-09-28T07:43:20;13.75;;;5.40;;
51836;SDS011;38941;53.254;6.600;2022-09-28T07:45:22;8.32;;;4.57;;
51836;SDS011;38941;53.254;6.600;2022-09-28T07:47:23;8.45;;;3.75;;
51836;SDS011;38941;53.254;6.600;2022-09-28T07:49:27;8.82;;;4.47;;
51836;SDS011;38941;53.254;6.600;2022-09-28T07:51:29;5.70;;;3.67;;
51836;SDS011;38941;53.254;6.600;2022-09-28T07:53:30;7.95;;;4.00;;
51836;SDS011;38941;53.254;6.600;2022-09-28T07:55:31;5.90;;;3.10;;
51836;SDS011;38941;53.254;6.600;2022-09-28T07:57:32;4.60;;;3.28;;
51836;SDS011;38941;53.254;6.600;2022-09-28T07:59:32;7.18;;;3.58;;
51836;SDS011;38941;53.254;6.600;2022-09-28T08:01:33;5.97;;;3.33;;
51836;SDS011;38941;53.254;6.600;2022-09-28T08:03:34;6.80;;;2.97;;
51836;SDS011;38941;53.254;6.600;2022-09-28T08:05:36;3.92;;;2.70;;
51836;SDS011;38941;53.254;6.600;2022-09-28T08:07:37;5.68;;;2.85;;
51836;SDS011;38941;53.254;6.600;2022-09-28T08:09:38;7.93;;;3.05;;
51836;SDS011;38941;53.254;6.600;2022-09-28T08:11:39;3.95;;;2.83;;
51836;SDS011;38941;53.254;6.600;2022-09-28T08:13:43;4.93;;;2.58;;
51836;SDS011;38941;53.254;6.600;2022-09-28T08:15:45;3.47;;;2.08;;
51836;SDS011;38941;53.254;6.600;2022-09-28T08:17:50;5.38;;;2.42;;
51836;SDS011;38941;53.254;6.600;2022-09-28T08:19:50;4.55;;;3.05;;
51836;SDS011;38941;53.254;6.600;2022-09-28T08:22:10;3.28;;;2.08;;
51836;SDS011;38941;53.254;6.600;2022-09-28T08:24:12;5.82;;;2.70;;
51836;SDS011;38941;53.254;6.600;2022-09-28T08:26:14;4.82;;;2.58;;
51836;SDS011;38941;53.254;6.600;2022-09-28T08:28:15;3.15;;;1.90;;
51836;SDS011;38941;53.254;6.600;2022-09-28T08:30:16;4.15;;;2.15;;
51836;SDS011;38941;53.254;6.600;2022-09-28T08:32:19;2.72;;;2.05;;
51836;SDS011;38941;53.254;6.600;2022-09-28T08:34:20;3.92;;;2.28;;
51836;SDS011;38941;53.254;6.600;2022-09-28T08:36:21;5.55;;;2.30;;
51836;SDS011;38941;53.254;6.600;2022-09-28T08:38:26;3.25;;;2.30;;
51836;SDS011;38941;53.254;6.600;2022-09-28T08:40:28;5.32;;;1.60;;
51836;SDS011;38941;53.254;6.600;2022-09-28T08:42:41;3.90;;;2.00;;
51836;SDS011;38941;53.254;6.600;2022-09-28T08:44:44;3.28;;;2.17;;
51836;SDS011;38941;53.254;6.600;2022-09-28T08:46:54;3.72;;;2.20;;
51836;SDS011;38941;53.254;6.600;2022-09-28T08:51:29;4.90;;;2.53;;
51836;SDS011;38941;53.254;6.600;2022-09-28T08:53:44;3.50;;;2.38;;
51836;SDS011;38941;53.254;6.600;2022-09-28T08:55:48;3.55;;;2.10;;
51836;SDS011;38941;53.254;6.600;2022-09-28T08:57:55;3.05;;;2.22;;
51836;SDS011;38941;53.254;6.600;2022-09-28T09:00:04;5.10;;;2.05;;
51836;SDS011;38941;53.254;6.600;2022-09-28T09:02:08;4.32;;;2.30;;
51836;SDS011;38941;53.254;6.600;2022-09-28T09:04:16;2.80;;;2.10;;
51836;SDS011;38941;53.254;6.600;2022-09-28T09:06:20;4.32;;;2.58;;
51836;SDS011;38941;53.254;6.600;2022-09-28T09:10:49;5.18;;;2.53;;
51836;SDS011;38941;53.254;6.600;2022-09-28T09:25:55;2.63;;;1.92;;
51836;SDS011;38941;53.254;6.600;2022-09-28T09:32:16;4.82;;;2.70;;
51836;SDS011;38941;53.254;6.600;2022-09-28T09:41:33;4.55;;;2.70;;
51836;SDS011;38941;53.254;6.600;2022-09-28T09:44:04;6.93;;;3.20;;
51836;SDS011;38941;53.254;6.600;2022-09-28T09:49:01;3.42;;;2.30;;
51836;SDS011;38941;53.254;6.600;2022-09-28T09:51:18;3.63;;;2.65;;
51836;SDS011;38941;53.254;6.600;2022-09-28T09:53:31;3.60;;;2.20;;
51836;SDS011;38941;53.254;6.600;2022-09-28T09:55:43;5.47;;;2.03;;
51836;SDS011;38941;53.254;6.600;2022-09-28T09:57:58;2.38;;;1.98;;
51836;SDS011;38941;53.254;6.600;2022-09-28T10:02:26;3.10;;;1.10;;
51836;SDS011;38941;53.254;6.600;2022-09-28T10:04:29;5.07;;;1.10;;
51836;SDS011;38941;53.254;6.600;2022-09-28T10:06:35;1.73;;;0.60;;
51836;SDS011;38941;53.254;6.600;2022-09-28T10:08:41;3.17;;;0.90;;
51836;SDS011;38941;53.254;6.600;2022-09-28T10:10:48;1.08;;;0.68;;
51836;SDS011;38941;53.254;6.600;2022-09-28T10:12:49;1.45;;;1.00;;
51836;SDS011;38941;53.254;6.600;2022-09-28T10:14:51;0.40;;;0.40;;
51836;SDS011;38941;53.254;6.600;2022-09-28T10:16:54;1.08;;;0.60;;
51836;SDS011;38941;53.254;6.600;2022-09-28T10:18:56;3.47;;;1.20;;
51836;SDS011;38941;53.254;6.600;2022-09-28T10:20:58;1.67;;;0.90;;
51836;SDS011;38941;53.254;6.600;2022-09-28T10:22:59;1.05;;;0.75;;
51836;SDS011;38941;53.254;6.600;2022-09-28T10:25:03;0.75;;;0.70;;
51836;SDS011;38941;53.254;6.600;2022-09-28T10:27:12;1.77;;;0.95;;
51836;SDS011;38941;53.254;6.600;2022-09-28T10:29:15;1.13;;;0.90;;
51836;SDS011;38941;53.254;6.600;2022-09-28T10:33:40;2.42;;;0.82;;
51836;SDS011;38941;53.254;6.600;2022-09-28T10:35:41;3.40;;;1.45;;
51836;SDS011;38941;53.254;6.600;2022-09-28T10:37:46;4.43;;;0.88;;
51836;SDS011;38941;53.254;6.600;2022-09-28T10:39:54;1.95;;;0.52;;
51836;SDS011;38941;53.254;6.600;2022-09-28T10:41:55;2.30;;;0.40;;
51836;SDS011;38941;53.254;6.600;2022-09-28T10:44:00;1.50;;;0.30;;
51836;SDS011;38941;53.254;6.600;2022-09-28T10:48:19;1.95;;;0.47;;
51836;SDS011;38941;53.254;6.600;2022-09-28T10:50:24;4.13;;;0.20;;
51836;SDS011;38941;53.254;6.600;2022-09-28T10:54:41;1.48;;;0.43;;
51836;SDS011;38941;53.254;6.600;2022-09-28T10:56:53;0.35;;;0.10;;
51836;SDS011;38941;53.254;6.600;2022-09-28T10:58:55;5.00;;;0.70;;
51836;SDS011;38941;53.254;6.600;2022-09-28T11:00:58;0.80;;;0.20;;
51836;SDS011;38941;53.254;6.600;2022-09-28T11:03:05;3.03;;;0.20;;
51836;SDS011;38941;53.254;6.600;2022-09-28T11:05:21;0.82;;;0.28;;
51836;SDS011;38941;53.254;6.600;2022-09-28T11:07:30;1.17;;;0.30;;
51836;SDS011;38941;53.254;6.600;2022-09-28T11:09:37;0.47;;;0.20;;
51836;SDS011;38941;53.254;6.600;2022-09-28T11:11:41;2.72;;;0.40;;
51836;SDS011;38941;53.254;6.600;2022-09-28T11:13:47;0.22;;;0.05;;
51836;SDS011;38941;53.254;6.600;2022-09-28T11:15:52;1.75;;;0.22;;
51836;SDS011;38941;53.254;6.600;2022-09-28T11:17:53;0.65;;;0.20;;
51836;SDS011;38941;53.254;6.600;2022-09-28T11:19:55;2.15;;;0.45;;
51836;SDS011;38941;53.254;6.600;2022-09-28T11:21:57;1.80;;;0.20;;
51836;SDS011;38941;53.254;6.600;2022-09-28T11:26:07;0.30;;;0.20;;
51836;SDS011;38941;53.254;6.600;2022-09-28T11:28:15;0.25;;;0.17;;
51836;SDS011;38941;53.254;6.600;2022-09-28T11:32:50;1.77;;;0.30;;
51836;SDS011;38941;53.254;6.600;2022-09-28T11:34:55;1.30;;;0.60;;
51836;SDS011;38941;53.254;6.600;2022-09-28T11:42:16;2.92;;;0.50;;
51836;SDS011;38941;53.254;6.600;2022-09-28T11:44:44;1.15;;;0.30;;
51836;SDS011;38941;53.254;6.600;2022-09-28T11:49:00;0.70;;;0.30;;
51836;SDS011;38941;53.254;6.600;2022-09-28T11:51:26;0.77;;;0.57;;
51836;SDS011;38941;53.254;6.600;2022-09-28T11:53:38;0.90;;;0.60;;
51836;SDS011;38941;53.254;6.600;2022-09-28T11:55:45;0.22;;;0.10;;
51836;SDS011;38941;53.254;6.600;2022-09-28T11:58:20;0.90;;;0.28;;
51836;SDS011;38941;53.254;6.600;2022-09-28T12:00:24;3.55;;;0.20;;
51836;SDS011;38941;53.254;6.600;2022-09-28T12:02:38;3.15;;;0.45;;
51836;SDS011;38941;53.254;6.600;2022-09-28T12:04:45;1.45;;;0.20;;
51836;SDS011;38941;53.254;6.600;2022-09-28T12:06:52;1.83;;;0.20;;
51836;SDS011;38941;53.254;6.600;2022-09-28T12:09:04;1.60;;;0.50;;
51836;SDS011;38941;53.254;6.600;2022-09-28T12:11:17;0.57;;;0.22;;
51836;SDS011;38941;53.254;6.600;2022-09-28T12:13:25;1.95;;;0.98;;
51836;SDS011;38941;53.254;6.600;2022-09-28T12:15:32;0.17;;;0.15;;
51836;SDS011;38941;53.254;6.600;2022-09-28T12:17:53;1.55;;;0.30;;
51836;SDS011;38941;53.254;6.600;2022-09-28T12:19:59;0.80;;;0.20;;
51836;SDS011;38941;53.254;6.600;2022-09-28T12:22:09;0.47;;;0.20;;
51836;SDS011;38941;53.254;6.600;2022-09-28T12:26:31;0.55;;;0.30;;
51836;SDS011;38941;53.254;6.600;2022-09-28T12:28:38;1.25;;;0.20;;
51836;SDS011;38941;53.254;6.600;2022-09-28T12:30:56;0.40;;;0.13;;
51836;SDS011;38941;53.254;6.600;2022-09-28T12:33:09;0.85;;;0.22;;
51836;SDS011;38941;53.254;6.600;2022-09-28T12:35:13;0.25;;;0.10;;
51836;SDS011;38941;53.254;6.600;2022-09-28T12:37:28;0.90;;;0.20;;
51836;SDS011;38941;53.254;6.600;2022-09-28T12:48:50;0.20;;;0.20;;
51836;SDS011;38941;53.254;6.600;2022-09-28T12:56:13;0.98;;;0.22;;
51836;SDS011;38941;53.254;6.600;2022-09-28T12:58:22;0.77;;;0.20;;
51836;SDS011;38941;53.254;6.600;2022-09-28T13:03:29;1.50;;;0.30;;
51836;SDS011;38941;53.254;6.600;2022-09-28T13:05:52;1.35;;;0.20;;
51836;SDS011;38941;53.254;6.600;2022-09-28T13:10:40;0.50;;;0.20;;
51836;SDS011;38941;53.254;6.600;2022-09-28T13:12:59;0.20;;;0.10;;
51836;SDS011;38941;53.254;6.600;2022-09-28T13:19:49;0.68;;;0.13;;
51836;SDS011;38941;53.254;6.600;2022-09-28T13:22:12;0.47;;;0.20;;
51836;SDS011;38941;53.254;6.600;2022-09-28T13:24:32;0.10;;;0.10;;
51836;SDS011;38941;53.254;6.600;2022-09-28T13:26:39;0.43;;;0.20;;
51836;SDS011;38941;53.254;6.600;2022-09-28T13:28:43;0.20;;;0.15;;
51836;SDS011;38941;53.254;6.600;2022-09-28T13:30:46;0.63;;;0.20;;
51836;SDS011;38941;53.254;6.600;2022-09-28T13:32:49;0.73;;;0.68;;
51836;SDS011;38941;53.254;6.600;2022-09-28T13:34:50;0.30;;;0.30;;
51836;SDS011;38941;53.254;6.600;2022-09-28T13:39:59;0.25;;;0.25;;
51836;SDS011;38941;53.254;6.600;2022-09-28T13:41:46;0.93;;;0.22;;
51836;SDS011;38941;53.254;6.600;2022-09-28T13:45:55;0.65;;;0.52;;
51836;SDS011;38941;53.254;6.600;2022-09-28T13:50:14;0.47;;;0.30;;
51836;SDS011;38941;53.254;6.600;2022-09-28T13:52:32;0.60;;;0.20;;
51836;SDS011;38941;53.254;6.600;2022-09-28T13:59:29;1.05;;;0.30;;
51836;SDS011;38941;53.254;6.600;2022-09-28T14:01:40;1.95;;;0.22;;
51836;SDS011;38941;53.254;6.600;2022-09-28T14:12:51;1.38;;;0.20;;
51836;SDS011;38941;53.254;6.600;2022-09-28T14:14:52;0.55;;;0.10;;
51836;SDS011;38941;53.254;6.600;2022-09-28T14:17:32;0.85;;;0.65;;
51836;SDS011;38941;53.254;6.600;2022-09-28T14:19:23;1.17;;;0.10;;
51836;SDS011;38941;53.254;6.600;2022-09-28T14:21:38;0.52;;;0.17;;
51836;SDS011;38941;53.254;6.600;2022-09-28T14:25:59;1.90;;;0.52;;
51836;SDS011;38941;53.254;6.600;2022-09-28T14:28:32;4.40;;;0.80;;
51836;SDS011;38941;53.254;6.600;2022-09-28T14:30:46;3.17;;;0.60;;
51836;SDS011;38941;53.254;6.600;2022-09-28T14:32:57;7.93;;;1.10;;
51836;SDS011;38941;53.254;6.600;2022-09-28T14:34:59;2.83;;;0.30;;
51836;SDS011;38941;53.254;6.600;2022-09-28T14:37:04;1.92;;;0.50;;
51836;SDS011;38941;53.254;6.600;2022-09-28T14:39:43;1.75;;;0.38;;
51836;SDS011;38941;53.254;6.600;2022-09-28T14:42:08;0.90;;;0.30;;
51836;SDS011;38941;53.254;6.600;2022-09-28T14:44:12;4.10;;;0.85;;
51836;SDS011;38941;53.254;6.600;2022-09-28T14:48:18;0.47;;;0.20;;
51836;SDS011;38941;53.254;6.600;2022-09-28T14:50:22;2.05;;;0.30;;